Time;durP1;ratioP1;P1;durP2;ratioP2;P2;SDS_P1;SDS_P2;PMS_P1;PMS_P2;Temp;Humidity;BMP_temperature;BMP_pressure;BME280_temperature;BME280_humidity;BME280_pressure;Samples;Min_cycle;Max_cycle;Signal;HPM_P1;HPM_P2
2022/07/22 00:03:04;;;;;;;16.65;7.90;;;16.00;99.90;;;;;;7334087;32;20104;-61
2022/07/22 00:07:06;;;;;;;14.85;8.10;;;15.90;99.90;;;;;;7332348;32;20228;-60
2022/07/22 00:11:08;;;;;;;22.55;9.52;;;16.00;99.90;;;;;;7331656;32;20178;-60
2022/07/22 00:15:10;;;;;;;15.45;9.02;;;15.90;99.90;;;;;;7333636;32;20153;-60
2022/07/22 00:19:12;;;;;;;17.42;9.13;;;15.90;99.90;;;;;;7337706;32;20119;-60
2022/07/22 00:23:14;;;;;;;16.80;8.88;;;15.90;99.90;;;;;;7333357;32;20095;-60
2022/07/22 00:27:16;;;;;;;18.80;11.20;;;15.90;99.90;;;;;;7333245;32;20115;-60
2022/07/22 00:31:18;;;;;;;15.52;10.63;;;15.80;99.90;;;;;;7332199;32;20108;-60
2022/07/22 00:35:20;;;;;;;15.68;11.88;;;15.90;99.90;;;;;;7333219;32;20194;-60
2022/07/22 00:39:22;;;;;;;21.02;11.40;;;15.80;99.90;;;;;;7331913;32;20200;-60
2022/07/22 00:43:24;;;;;;;22.70;12.77;;;15.80;99.90;;;;;;7332608;32;20156;-60
2022/07/22 00:47:26;;;;;;;16.40;11.60;;;15.70;99.90;;;;;;7333204;32;20103;-60
2022/07/22 00:51:29;;;;;;;22.80;14.32;;;15.80;99.90;;;;;;7332163;32;20162;-60
2022/07/22 00:55:34;;;;;;;25.35;15.02;;;15.80;99.90;;;;;;7332210;32;20444;-60
2022/07/22 00:59:35;;;;;;;20.33;15.15;;;15.80;99.90;;;;;;7354766;32;20159;-60
2022/07/22 01:03:37;;;;;;;21.67;14.82;;;15.80;99.90;;;;;;7357809;32;20115;-60
2022/07/22 01:07:41;;;;;;;24.25;13.40;;;15.80;99.90;;;;;;7357581;32;20099;-60
2022/07/22 01:11:43;;;;;;;22.60;15.43;;;15.80;99.90;;;;;;7357422;32;20550;-60
2022/07/22 01:15:45;;;;;;;24.70;13.82;;;15.80;99.90;;;;;;7358123;32;20098;-60
2022/07/22 01:19:47;;;;;;;22.25;13.68;;;15.90;99.90;;;;;;7358982;32;20126;-60
2022/07/22 01:23:49;;;;;;;19.35;14.15;;;15.80;99.90;;;;;;7363022;32;20186;-60
2022/07/22 01:27:51;;;;;;;21.40;14.90;;;15.90;99.90;;;;;;7361645;32;20146;-59
2022/07/22 01:31:53;;;;;;;21.73;13.95;;;15.80;99.90;;;;;;7362192;32;20111;-60
2022/07/22 01:35:54;;;;;;;23.20;14.65;;;15.80;99.90;;;;;;7344136;32;20545;-60
2022/07/22 01:39:56;;;;;;;22.48;15.32;;;15.80;99.90;;;;;;7335838;32;20174;-60
2022/07/22 01:43:58;;;;;;;20.73;14.38;;;15.80;99.90;;;;;;7335718;32;20167;-60
2022/07/22 01:48:01;;;;;;;25.12;15.40;;;15.80;99.90;;;;;;7335040;32;20205;-60
2022/07/22 01:52:04;;;;;;;21.15;14.85;;;15.70;99.90;;;;;;7335928;32;20099;-60
2022/07/22 01:56:08;;;;;;;22.42;16.05;;;15.80;99.90;;;;;;7336814;32;20118;-60
2022/07/22 02:00:11;;;;;;;24.50;15.23;;;15.80;99.90;;;;;;7360623;32;20287;-60
2022/07/22 02:04:13;;;;;;;24.33;15.05;;;15.90;99.90;;;;;;7361865;32;20148;-60
2022/07/22 02:08:15;;;;;;;19.65;13.48;;;15.80;99.90;;;;;;7360374;32;20145;-60
2022/07/22 02:12:16;;;;;;;19.00;13.20;;;15.80;99.90;;;;;;7361290;32;20559;-60
2022/07/22 02:16:18;;;;;;;20.08;12.73;;;15.80;99.90;;;;;;7360879;32;20174;-60
2022/07/22 02:20:22;;;;;;;16.02;12.23;;;15.70;99.90;;;;;;7360483;32;20220;-59
2022/07/22 02:24:23;;;;;;;17.98;12.13;;;15.70;99.90;;;;;;7361475;32;20150;-60
2022/07/22 02:28:25;;;;;;;16.17;11.73;;;15.70;99.90;;;;;;7353190;32;20783;-60
2022/07/22 02:32:27;;;;;;;16.35;11.80;;;15.80;99.90;;;;;;7360485;32;20496;-60
2022/07/22 02:36:28;;;;;;;19.40;11.50;;;15.70;99.90;;;;;;7361137;32;20122;-60
2022/07/22 02:40:31;;;;;;;18.77;10.18;;;15.70;99.90;;;;;;7359298;32;20243;-60
2022/07/22 02:44:33;;;;;;;14.93;9.65;;;15.70;99.90;;;;;;7360343;32;20152;-60
2022/07/22 02:48:35;;;;;;;13.52;8.45;;;15.70;99.90;;;;;;7359949;32;20168;-60
2022/07/22 02:52:36;;;;;;;11.18;9.00;;;15.70;99.90;;;;;;7360292;32;20502;-60
2022/07/22 02:56:38;;;;;;;13.73;9.48;;;15.70;99.90;;;;;;7338401;32;20527;-60
2022/07/22 03:00:40;;;;;;;13.13;7.78;;;15.70;99.90;;;;;;7333591;32;20635;-61
2022/07/22 03:04:42;;;;;;;15.00;8.10;;;15.70;99.90;;;;;;7334711;32;20214;-60
2022/07/22 03:08:43;;;;;;;11.05;7.45;;;15.70;99.90;;;;;;7334143;32;20143;-60
2022/07/22 03:12:45;;;;;;;11.10;7.97;;;15.70;99.90;;;;;;7334025;32;20138;-60
2022/07/22 03:16:47;;;;;;;13.25;8.05;;;15.60;99.90;;;;;;7346594;32;20232;-60
2022/07/22 03:20:49;;;;;;;13.18;8.20;;;15.70;99.90;;;;;;7335986;32;20565;-59
2022/07/22 03:24:50;;;;;;;15.27;8.27;;;15.70;99.90;;;;;;7335067;32;20247;-60
2022/07/22 03:28:52;;;;;;;11.45;8.23;;;15.70;99.90;;;;;;7333714;32;20100;-60
2022/07/22 03:32:55;;;;;;;12.13;8.20;;;15.70;99.90;;;;;;7334152;32;20175;-60
2022/07/22 03:36:56;;;;;;;13.62;8.43;;;15.60;99.90;;;;;;7333765;32;20187;-60
2022/07/22 03:40:58;;;;;;;11.85;8.77;;;15.60;99.90;;;;;;7333209;32;20197;-59
2022/07/22 03:45:00;;;;;;;12.07;8.60;;;15.50;99.90;;;;;;7333106;32;20130;-60
2022/07/22 03:49:02;;;;;;;14.63;8.35;;;15.60;99.90;;;;;;7333280;32;20451;-60
2022/07/22 03:53:03;;;;;;;8.07;4.40;;;15.50;99.90;;;;;;7335031;32;20108;-60
2022/07/22 03:57:05;;;;;;;8.70;4.03;;;15.40;99.90;;;;;;7334053;32;20088;-60
2022/07/22 04:01:07;;;;;;;8.98;4.65;;;15.30;99.90;;;;;;7332569;32;20177;-60
2022/07/22 04:05:09;;;;;;;8.73;4.30;;;15.30;99.90;;;;;;7333574;32;20179;-60
2022/07/22 04:09:11;;;;;;;8.82;4.15;;;15.20;99.90;;;;;;7332839;32;20183;-60
2022/07/22 04:13:12;;;;;;;10.98;4.20;;;15.10;99.90;;;;;;7333014;32;20594;-59
2022/07/22 04:17:14;;;;;;;10.82;4.10;;;15.10;99.90;;;;;;7332914;32;20477;-60
2022/07/22 04:21:16;;;;;;;9.25;4.60;;;15.10;99.90;;;;;;7332413;32;20122;-60
2022/07/22 04:25:18;;;;;;;13.68;5.32;;;15.10;99.90;;;;;;7333465;32;20183;-60
2022/07/22 04:29:20;;;;;;;11.18;5.37;;;15.10;99.90;;;;;;7332026;32;20242;-60
2022/07/22 04:33:22;;;;;;;10.23;5.37;;;15.10;99.90;;;;;;7332901;32;20142;-60
2022/07/22 04:37:23;;;;;;;12.23;4.90;;;15.20;99.90;;;;;;7333137;32;20153;-60
2022/07/22 04:41:25;;;;;;;9.98;5.90;;;15.20;99.90;;;;;;7332125;32;20152;-60
2022/07/22 04:45:27;;;;;;;11.32;5.10;;;15.20;99.90;;;;;;7332132;32;20168;-61
2022/07/22 04:49:28;;;;;;;11.90;5.68;;;15.30;99.90;;;;;;7331445;32;20198;-64
2022/07/22 04:53:30;;;;;;;8.00;5.00;;;15.40;99.90;;;;;;7334477;32;20259;-63
2022/07/22 04:57:48;;;;;;;12.20;4.90;;;15.40;99.90;;;;;;7351083;32;20119;-64
2022/07/22 05:01:49;;;;;;;9.85;4.87;;;15.40;99.90;;;;;;7347523;32;20123;-63
2022/07/22 05:05:51;;;;;;;9.65;5.12;;;15.40;99.90;;;;;;7355423;32;20488;-64
2022/07/22 05:09:53;;;;;;;8.52;5.15;;;15.40;99.90;;;;;;7360628;32;20592;-64
2022/07/22 05:13:55;;;;;;;7.28;5.07;;;15.40;99.90;;;;;;7362474;32;20174;-64
2022/07/22 05:17:56;;;;;;;15.25;5.12;;;15.50;99.90;;;;;;7361691;32;20606;-65
2022/07/22 05:21:58;;;;;;;10.30;4.32;;;15.50;99.90;;;;;;7362342;32;20289;-64
2022/07/22 05:26:00;;;;;;;10.02;4.93;;;15.50;99.90;;;;;;7362563;32;20103;-64
2022/07/22 05:30:02;;;;;;;6.40;5.05;;;15.50;99.90;;;;;;7361676;32;20579;-63
2022/07/22 05:34:04;;;;;;;10.77;4.75;;;15.50;99.90;;;;;;7362510;32;20100;-64
2022/07/22 05:38:06;;;;;;;10.55;4.97;;;15.50;99.90;;;;;;7361755;32;20122;-64
2022/07/22 05:42:08;;;;;;;13.20;4.82;;;15.60;99.90;;;;;;7362600;32;20567;-64
2022/07/22 05:46:10;;;;;;;11.55;6.37;;;15.50;99.90;;;;;;7362088;32;20179;-63
2022/07/22 05:50:11;;;;;;;16.05;9.98;;;15.60;99.90;;;;;;7360559;32;20202;-63
2022/07/22 05:54:13;;;;;;;13.23;5.18;;;15.60;99.90;;;;;;7355433;32;20133;-63
2022/07/22 05:58:15;;;;;;;12.65;4.75;;;15.60;99.90;;;;;;7350760;32;20206;-65
2022/07/22 06:02:17;;;;;;;10.60;4.82;;;15.60;99.90;;;;;;7361838;32;20481;-64
2022/07/22 06:06:19;;;;;;;9.55;4.62;;;15.70;99.90;;;;;;7360839;32;20214;-64
2022/07/22 06:10:20;;;;;;;15.65;4.57;;;15.70;99.90;;;;;;7360574;32;20497;-64
2022/07/22 06:14:22;;;;;;;8.43;4.22;;;15.60;99.90;;;;;;7362100;32;20153;-64
2022/07/22 06:18:24;;;;;;;11.80;4.37;;;15.60;99.90;;;;;;7360915;32;20193;-65
2022/07/22 06:22:26;;;;;;;10.73;4.80;;;15.70;99.90;;;;;;7361039;32;20125;-64
2022/07/22 06:26:27;;;;;;;10.25;4.65;;;15.80;99.90;;;;;;7361062;32;20147;-64
2022/07/22 06:30:29;;;;;;;9.93;4.60;;;15.80;99.90;;;;;;7360062;32;20168;-64
2022/07/22 06:34:31;;;;;;;10.70;3.83;;;16.00;99.90;;;;;;7361430;32;20250;-64
2022/07/22 06:38:32;;;;;;;8.38;4.28;;;16.00;99.90;;;;;;7359843;32;20186;-65
2022/07/22 06:42:42;;;;;;;7.65;4.28;;;16.00;99.90;;;;;;7361068;32;20190;-64
2022/07/22 06:46:43;;;;;;;13.32;5.00;;;16.10;99.90;;;;;;7361019;32;20122;-64
2022/07/22 06:50:45;;;;;;;9.27;4.57;;;16.20;99.90;;;;;;7360155;32;20100;-65
2022/07/22 06:54:54;;;;;;;9.25;4.43;;;16.30;99.90;;;;;;7349394;32;20096;-65
2022/07/22 06:58:55;;;;;;;11.32;4.97;;;16.40;99.90;;;;;;7352552;32;20182;-64
2022/07/22 07:02:59;;;;;;;11.43;4.57;;;16.40;99.90;;;;;;7360089;32;20132;-65
2022/07/22 07:07:21;;;;;;;12.30;4.90;;;16.20;99.90;;;;;;7360183;32;20129;-64
2022/07/22 07:11:23;;;;;;;10.40;4.35;;;16.20;99.90;;;;;;7358850;32;20192;-64
2022/07/22 07:15:25;;;;;;;9.95;5.12;;;16.20;99.90;;;;;;7359893;32;20115;-64
2022/07/22 07:19:28;;;;;;;9.40;5.18;;;16.40;99.90;;;;;;7358641;32;20099;-64
2022/07/22 07:23:31;;;;;;;13.30;4.70;;;16.40;99.90;;;;;;7359665;32;20591;-64
2022/07/22 07:27:33;;;;;;;8.10;4.68;;;16.50;99.90;;;;;;7358983;32;20118;-64
2022/07/22 07:31:35;;;;;;;8.88;4.40;;;16.50;99.90;;;;;;7359326;32;20103;-64
2022/07/22 07:35:37;;;;;;;10.07;4.72;;;16.60;99.90;;;;;;7359237;32;20499;-64
2022/07/22 07:39:39;;;;;;;10.35;4.80;;;16.60;99.90;;;;;;7358580;32;20524;-64
2022/07/22 07:43:41;;;;;;;8.20;5.10;;;16.70;99.90;;;;;;7358973;32;20107;-64
2022/07/22 07:47:43;;;;;;;16.95;4.90;;;16.70;99.90;;;;;;7358291;32;20167;-64
2022/07/22 07:51:44;;;;;;;10.55;5.47;;;16.50;99.90;;;;;;7359056;32;20217;-64
2022/07/22 07:55:46;;;;;;;13.73;4.37;;;16.50;99.90;;;;;;7342975;32;20160;-64
2022/07/22 07:59:48;;;;;;;10.05;5.28;;;16.50;99.90;;;;;;7356810;32;20754;-64
2022/07/22 08:03:50;;;;;;;10.05;5.55;;;16.50;99.90;;;;;;7359480;32;20376;-64
2022/07/22 08:08:12;;;;;;;11.38;4.82;;;16.40;99.90;;;;;;7358641;32;20510;-64
2022/07/22 08:12:16;;;;;;;8.43;4.57;;;16.50;99.90;;;;;;7358880;32;20179;-64
2022/07/22 08:16:18;;;;;;;10.63;5.05;;;16.40;99.90;;;;;;7358935;32;20104;-64
2022/07/22 08:20:24;;;;;;;10.00;5.37;;;16.50;99.90;;;;;;7357984;32;20118;-64
2022/07/22 08:24:26;;;;;;;11.02;4.95;;;16.50;99.90;;;;;;7358700;32;20163;-64
2022/07/22 08:28:27;;;;;;;9.90;4.75;;;16.40;99.90;;;;;;7358021;32;20239;-64
2022/07/22 08:32:30;;;;;;;9.23;4.22;;;16.60;99.90;;;;;;7363405;32;20140;-64
2022/07/22 08:36:32;;;;;;;11.45;4.60;;;16.70;99.90;;;;;;7364296;32;20247;-64
2022/07/22 08:40:34;;;;;;;8.95;4.60;;;16.60;99.90;;;;;;7362557;32;20174;-65
2022/07/22 08:44:35;;;;;;;11.18;4.70;;;16.60;99.90;;;;;;7363338;32;20104;-64
2022/07/22 08:48:38;;;;;;;9.82;4.40;;;16.50;99.90;;;;;;7362909;32;20096;-64
2022/07/22 08:52:40;;;;;;;9.38;4.95;;;16.50;99.90;;;;;;7363790;32;20111;-64
2022/07/22 08:56:47;;;;;;;8.25;4.97;;;16.50;99.90;;;;;;7345573;32;20210;-64
2022/07/22 09:01:08;;;;;;;8.20;5.47;;;16.60;99.90;;;;;;7362422;32;20162;-64
2022/07/22 09:05:16;;;;;;;8.98;5.32;;;16.70;99.90;;;;;;7363436;32;20499;-64
2022/07/22 09:09:37;;;;;;;12.20;5.90;;;16.70;99.90;;;;;;7362281;32;20091;-64
2022/07/22 09:13:39;;;;;;;17.92;8.55;;;16.90;99.90;;;;;;7362854;32;20172;-64
2022/07/22 09:17:41;;;;;;;25.45;12.88;;;16.90;99.90;;;;;;7361779;32;20170;-64
2022/07/22 09:21:47;;;;;;;23.98;13.65;;;17.10;99.90;;;;;;7362648;32;20284;-64
2022/07/22 09:25:49;;;;;;;25.98;14.45;;;16.90;99.90;;;;;;7362597;32;20198;-64
2022/07/22 09:29:53;;;;;;;23.60;13.13;;;16.90;99.90;;;;;;7361776;32;20218;-64
2022/07/22 09:33:55;;;;;;;22.42;12.95;;;16.90;99.90;;;;;;7362177;32;20111;-65
2022/07/22 09:38:09;;;;;;;21.90;12.60;;;16.90;99.90;;;;;;7362002;32;20517;-64
2022/07/22 09:42:16;;;;;;;23.60;12.00;;;17.00;99.90;;;;;;7361920;32;20176;-64
2022/07/22 09:46:37;;;;;;;24.35;12.15;;;17.20;99.90;;;;;;7361980;32;20530;-64
2022/07/22 09:50:39;;;;;;;23.30;12.20;;;17.20;99.90;;;;;;7361311;32;20183;-64
2022/07/22 09:54:41;;;;;;;28.38;13.38;;;17.20;99.90;;;;;;7352829;32;20156;-64
2022/07/22 09:58:43;;;;;;;21.48;11.25;;;17.10;99.90;;;;;;7353006;32;20178;-64
2022/07/22 10:02:56;;;;;;;23.80;11.73;;;17.10;99.90;;;;;;7361826;32;20481;-64
2022/07/22 10:06:59;;;;;;;19.83;10.77;;;17.40;99.90;;;;;;7362418;32;20123;-65
2022/07/22 10:11:04;;;;;;;34.88;14.35;;;17.50;99.90;;;;;;7360855;32;20736;-64
2022/07/22 10:15:07;;;;;;;31.85;16.20;;;17.50;99.90;;;;;;7361839;32;20103;-64
2022/07/22 10:19:10;;;;;;;42.88;19.80;;;17.40;99.90;;;;;;7360648;32;20119;-64
2022/07/22 10:23:13;;;;;;;38.05;18.98;;;17.40;99.90;;;;;;7361088;32;20259;-64
2022/07/22 10:27:15;;;;;;;40.80;21.15;;;17.80;99.90;;;;;;7360357;32;20156;-64
2022/07/22 10:31:24;;;;;;;41.28;21.98;;;18.40;99.90;;;;;;7360390;32;20431;-64
2022/07/22 10:35:26;;;;;;;37.60;21.00;;;18.00;99.90;;;;;;7360949;32;20091;-65
2022/07/22 10:39:28;;;;;;;34.70;19.37;;;18.30;99.90;;;;;;7360366;32;20720;-65
2022/07/22 10:43:44;;;;;;;39.10;21.65;;;18.50;99.90;;;;;;7360710;32;20111;-64
2022/07/22 10:47:56;;;;;;;37.83;20.05;;;18.80;99.90;;;;;;7359915;32;20523;-64
2022/07/22 10:52:07;;;;;;;37.58;21.83;;;18.90;99.90;;;;;;7359436;32;20119;-65
2022/07/22 10:56:26;;;;;;;38.88;22.83;;;19.00;99.90;;;;;;7342882;32;20107;-64
2022/07/22 11:00:28;;;;;;;35.80;21.75;;;19.10;99.90;;;;;;7359268;32;20493;-64
2022/07/22 11:04:30;;;;;;;35.08;23.12;;;18.80;99.90;;;;;;7360012;32;20147;-65
2022/07/22 11:08:32;;;;;;;36.05;21.33;;;19.00;99.90;;;;;;7359005;32;20134;-65
2022/07/22 11:12:33;;;;;;;32.88;21.37;;;19.30;99.90;;;;;;7359987;32;20107;-65
2022/07/22 11:16:35;;;;;;;34.97;22.02;;;20.00;99.90;;;;;;7358697;32;20773;-66
2022/07/22 11:20:37;;;;;;;30.48;20.02;;;20.40;99.90;;;;;;7358912;32;20463;-65
2022/07/22 11:24:40;;;;;;;33.13;21.70;;;20.20;99.90;;;;;;7359702;32;20767;-65
2022/07/22 11:28:43;;;;;;;38.17;23.15;;;20.40;99.90;;;;;;7359077;32;20133;-65
2022/07/22 11:32:45;;;;;;;32.97;21.05;;;20.20;99.90;;;;;;7359667;32;20117;-65
2022/07/22 11:36:48;;;;;;;28.70;19.10;;;20.20;99.90;;;;;;7359071;32;20530;-65
2022/07/22 11:40:50;;;;;;;29.40;20.20;;;19.70;99.90;;;;;;7356304;32;20099;-65
2022/07/22 11:44:51;;;;;;;29.87;19.62;;;20.00;99.90;;;;;;7359040;32;20115;-65
2022/07/22 11:48:56;;;;;;;23.65;16.42;;;20.50;99.90;;;;;;7357786;32;20164;-66
2022/07/22 11:53:02;;;;;;;25.02;18.12;;;20.70;99.90;;;;;;7357391;32;20126;-65
2022/07/22 11:57:03;;;;;;;26.42;18.90;;;20.90;99.90;;;;;;7340317;32;20099;-65
2022/07/22 12:01:08;;;;;;;26.45;18.75;;;21.00;99.90;;;;;;7357299;32;20107;-65
2022/07/22 12:05:10;;;;;;;28.87;20.52;;;21.00;99.90;;;;;;7357514;32;20108;-65
2022/07/22 12:09:34;;;;;;;31.00;21.08;;;20.70;99.90;;;;;;7357730;32;20561;-65
2022/07/22 12:13:41;;;;;;;32.65;23.00;;;20.30;99.90;;;;;;7358963;32;20175;-65
2022/07/22 12:18:15;;;;;;;32.40;23.05;;;20.40;99.90;;;;;;7358012;32;20517;-66
2022/07/22 12:22:21;;;;;;;32.35;21.90;;;20.20;99.90;;;;;;7358554;32;20127;-66
2022/07/22 12:26:44;;;;;;;31.92;23.58;;;20.80;99.90;;;;;;7358198;32;20198;-65
2022/07/22 12:30:46;;;;;;;27.20;20.42;;;21.00;99.90;;;;;;7357604;32;20103;-65
2022/07/22 12:34:55;;;;;;;28.50;21.00;;;21.20;99.90;;;;;;7358312;32;20103;-65
2022/07/22 12:38:57;;;;;;;24.02;18.98;;;21.00;99.90;;;;;;7357206;32;20111;-66
2022/07/22 12:43:03;;;;;;;31.95;20.27;;;21.30;99.90;;;;;;7358243;32;20169;-65
2022/07/22 12:47:05;;;;;;;29.02;22.10;;;21.30;99.90;;;;;;7358684;32;20103;-65
2022/07/22 12:51:10;;;;;;;30.85;21.00;;;20.90;99.90;;;;;;7357166;32;20123;-66
2022/07/22 12:55:12;;;;;;;29.10;21.37;;;20.70;99.90;;;;;;7345514;32;20125;-65
2022/07/22 12:59:15;;;;;;;33.38;24.25;;;21.00;99.90;;;;;;7352765;32;20228;-65
2022/07/22 13:03:19;;;;;;;28.48;21.35;;;21.30;99.90;;;;;;7358386;32;20529;-65
2022/07/22 13:07:21;;;;;;;26.65;20.35;;;21.20;99.90;;;;;;7343891;32;20103;-65
2022/07/22 13:11:22;;;;;;;28.10;19.75;;;21.30;99.90;;;;;;7331577;32;20189;-65
2022/07/22 13:15:24;;;;;;;22.40;17.35;;;21.50;99.90;;;;;;7333902;32;20100;-65
2022/07/22 13:19:26;;;;;;;23.58;15.98;;;21.80;99.90;;;;;;7336430;32;20571;-65
2022/07/22 13:23:28;;;;;;;19.42;15.18;;;22.10;99.90;;;;;;7336768;32;20200;-65
2022/07/22 13:27:30;;;;;;;22.02;13.85;;;22.50;99.90;;;;;;7336356;32;20588;-65
2022/07/22 13:31:31;;;;;;;15.93;12.55;;;22.50;99.90;;;;;;7336430;32;20168;-65
2022/07/22 13:35:34;;;;;;;18.83;12.95;;;21.90;99.90;;;;;;7336618;32;20304;-65
2022/07/22 13:39:35;;;;;;;17.00;12.05;;;22.20;99.90;;;;;;7335553;32;20145;-66
2022/07/22 13:43:37;;;;;;;20.55;11.45;;;22.20;99.90;;;;;;7335931;32;20099;-65
2022/07/22 13:47:40;;;;;;;16.52;11.40;;;22.30;99.90;;;;;;7335707;32;20199;-65
2022/07/22 13:51:42;;;;;;;16.58;11.43;;;22.80;99.90;;;;;;7336089;32;20149;-65
2022/07/22 13:55:44;;;;;;;16.90;10.77;;;23.10;99.90;;;;;;7335528;32;20210;-66
2022/07/22 13:59:45;;;;;;;14.07;10.23;;;23.60;99.90;;;;;;7359288;32;20296;-66
2022/07/22 14:03:47;;;;;;;15.07;11.95;;;24.60;99.90;;;;;;7361510;32;20122;-66
2022/07/22 14:07:49;;;;;;;17.98;12.90;;;24.60;99.90;;;;;;7360539;32;20135;-65
2022/07/22 14:11:51;;;;;;;19.30;12.40;;;24.10;99.90;;;;;;7361031;32;20251;-66
2022/07/22 14:15:53;;;;;;;18.58;12.63;;;23.40;99.90;;;;;;7360947;32;20304;-65
2022/07/22 14:19:55;;;;;;;19.17;12.65;;;22.60;99.90;;;;;;7360777;32;20125;-65
2022/07/22 14:24:02;;;;;;;18.02;12.88;;;22.00;99.90;;;;;;7361274;32;20186;-65
2022/07/22 14:28:06;;;;;;;17.77;12.07;;;22.80;99.90;;;;;;7359012;32;20756;-66
2022/07/22 14:32:28;;;;;;;13.77;10.20;;;23.50;99.90;;;;;;7360365;32;20133;-65
2022/07/22 14:36:30;;;;;;;15.35;9.57;;;23.90;99.90;;;;;;7360481;32;20111;-65
2022/07/22 14:40:31;;;;;;;14.65;8.98;;;24.10;99.90;;;;;;7358517;32;20257;-65
2022/07/22 14:44:33;;;;;;;11.50;8.95;;;24.70;99.90;;;;;;7358223;32;20217;-65
2022/07/22 14:48:36;;;;;;;9.82;7.20;;;24.90;99.90;;;;;;7357881;32;20198;-65
2022/07/22 14:52:38;;;;;;;10.18;7.18;;;25.10;99.90;;;;;;7358629;32;20834;-65
2022/07/22 14:56:40;;;;;;;13.35;7.75;;;24.90;99.90;;;;;;7340652;32;20562;-65
2022/07/22 15:00:42;;;;;;;11.70;7.90;;;24.60;99.90;;;;;;7357987;32;20099;-65
2022/07/22 15:04:44;;;;;;;11.55;8.38;;;24.30;99.90;;;;;;7358033;32;20344;-65
2022/07/22 15:08:46;;;;;;;11.88;8.52;;;23.90;99.90;;;;;;7357006;32;20125;-65
2022/07/22 15:12:48;;;;;;;11.98;8.18;;;23.60;99.90;;;;;;7357952;32;20100;-65
2022/07/22 15:16:50;;;;;;;11.18;8.77;;;23.50;99.90;;;;;;7357963;32;20107;-65
2022/07/22 15:20:54;;;;;;;12.52;8.60;;;23.30;99.90;;;;;;7355893;32;20099;-65
2022/07/22 15:24:56;;;;;;;14.75;8.80;;;22.80;99.90;;;;;;7357453;32;20125;-65
2022/07/22 15:28:58;;;;;;;15.02;9.55;;;22.90;99.90;;;;;;7356286;32;20121;-65
2022/07/22 15:33:00;;;;;;;13.43;9.80;;;22.70;99.90;;;;;;7355778;32;20103;-65
2022/07/22 15:37:01;;;;;;;15.85;10.38;;;22.70;99.90;;;;;;7356346;32;20119;-65
2022/07/22 15:41:04;;;;;;;17.52;10.80;;;22.40;99.90;;;;;;7355132;32;20156;-65
2022/07/22 15:45:06;;;;;;;12.43;10.35;;;22.00;99.90;;;;;;7355819;32;20103;-65
2022/07/22 15:49:11;;;;;;;13.60;10.70;;;21.90;99.90;;;;;;7355029;32;20181;-65
2022/07/22 15:53:13;;;;;;;14.13;11.40;;;21.80;99.90;;;;;;7356173;32;20111;-65
2022/07/22 16:01:35;;;;;;;13.73;11.30;;;21.80;99.90;;;;;;7356255;32;20188;-65
2022/07/22 16:05:37;;;;;;;14.57;12.07;;;22.00;99.90;;;;;;7355863;32;20113;-65
2022/07/22 16:09:39;;;;;;;19.37;13.05;;;22.00;99.90;;;;;;7355227;32;20199;-65
2022/07/22 16:13:41;;;;;;;16.55;13.48;;;21.80;99.90;;;;;;7356253;32;20114;-66
2022/07/22 16:17:43;;;;;;;15.90;13.35;;;21.80;99.90;;;;;;7355677;32;20119;-65
2022/07/22 16:21:45;;;;;;;15.25;13.65;;;21.80;99.90;;;;;;7356385;32;20111;-65
2022/07/22 16:25:47;;;;;;;17.92;12.95;;;21.90;99.90;;;;;;7356503;32;20198;-65
2022/07/22 16:29:48;;;;;;;17.05;12.70;;;21.80;99.90;;;;;;7356142;32;20182;-65
2022/07/22 16:33:52;;;;;;;17.05;12.23;;;21.90;99.90;;;;;;7356040;32;20145;-65
2022/07/22 16:37:54;;;;;;;17.02;11.90;;;21.90;99.90;;;;;;7355281;32;20210;-65
2022/07/22 16:42:03;;;;;;;16.27;12.02;;;21.90;99.90;;;;;;7355899;32;20108;-65
2022/07/22 16:46:05;;;;;;;14.60;11.57;;;21.60;99.90;;;;;;7356199;32;20292;-65
2022/07/22 16:50:07;;;;;;;12.40;10.73;;;21.60;99.90;;;;;;7355879;32;20099;-65
2022/07/22 16:54:09;;;;;;;15.23;12.52;;;21.60;99.90;;;;;;7355333;32;20150;-65
2022/07/22 16:58:11;;;;;;;16.00;12.25;;;21.40;99.90;;;;;;7348506;32;20183;-65
2022/07/22 17:02:13;;;;;;;15.75;12.45;;;21.30;99.90;;;;;;7360894;32;20214;-65
2022/07/22 17:06:14;;;;;;;16.98;12.93;;;21.10;99.90;;;;;;7359992;32;20327;-65
2022/07/22 17:10:16;;;;;;;15.38;12.45;;;21.10;99.90;;;;;;7359487;32;20178;-65
2022/07/22 17:14:19;;;;;;;15.10;12.27;;;21.10;99.90;;;;;;7359647;32;20119;-65
2022/07/22 17:18:21;;;;;;;17.92;13.48;;;21.10;99.90;;;;;;7359642;32;20175;-65
2022/07/22 17:22:23;;;;;;;15.65;13.02;;;21.10;99.90;;;;;;7359207;32;20185;-65
2022/07/22 17:26:26;;;;;;;17.05;13.55;;;21.20;99.90;;;;;;7360087;32;20194;-65
2022/07/22 17:30:28;;;;;;;17.12;14.23;;;21.20;99.90;;;;;;7359311;32;20472;-66
2022/07/22 17:34:29;;;;;;;18.30;13.50;;;21.10;99.90;;;;;;7360082;32;20151;-65
2022/07/22 17:38:31;;;;;;;15.93;13.95;;;21.10;99.90;;;;;;7358857;32;20186;-65
2022/07/22 17:42:33;;;;;;;16.98;14.38;;;21.00;99.90;;;;;;7359559;32;20172;-65
2022/07/22 17:46:35;;;;;;;18.40;14.10;;;20.90;99.90;;;;;;7360129;32;20178;-65
2022/07/22 17:50:38;;;;;;;16.98;13.68;;;20.80;99.90;;;;;;7359363;32;20197;-66
2022/07/22 17:54:40;;;;;;;16.95;14.02;;;20.70;99.90;;;;;;7349000;32;20161;-66
2022/07/22 17:58:44;;;;;;;19.58;13.77;;;20.70;99.90;;;;;;7350588;32;20162;-65
2022/07/22 18:02:46;;;;;;;16.05;12.75;;;20.60;99.90;;;;;;7358085;32;20537;-66
2022/07/22 18:06:47;;;;;;;19.75;14.40;;;20.60;99.90;;;;;;7358931;32;20187;-66
2022/07/22 18:10:49;;;;;;;15.48;12.20;;;20.50;99.90;;;;;;7357776;32;20135;-65
2022/07/22 18:14:51;;;;;;;16.90;13.25;;;20.50;99.90;;;;;;7357954;32;20178;-66
2022/07/22 18:18:53;;;;;;;17.25;12.93;;;20.40;99.90;;;;;;7357282;32;20169;-66
2022/07/22 18:22:54;;;;;;;14.50;12.88;;;20.30;99.90;;;;;;7358553;32;20276;-66
2022/07/22 18:26:56;;;;;;;14.93;12.35;;;20.20;99.90;;;;;;7358090;32;20506;-66
2022/07/22 18:30:58;;;;;;;16.92;12.23;;;20.20;99.90;;;;;;7356178;32;20134;-66
2022/07/22 18:35:00;;;;;;;16.58;11.00;;;20.10;99.90;;;;;;7357997;32;20103;-66
2022/07/22 18:39:03;;;;;;;14.38;10.90;;;20.00;99.90;;;;;;7357203;32;20103;-66
2022/07/22 18:43:05;;;;;;;14.52;9.95;;;19.90;99.90;;;;;;7357291;32;20126;-66
2022/07/22 18:47:07;;;;;;;11.65;9.93;;;19.90;99.90;;;;;;7356324;32;20168;-65
2022/07/22 18:51:09;;;;;;;10.52;8.35;;;19.90;99.90;;;;;;7356785;32;20103;-66
2022/07/22 18:55:11;;;;;;;12.45;8.65;;;19.70;99.90;;;;;;7345038;32;20103;-65
2022/07/22 18:59:12;;;;;;;11.93;8.75;;;19.70;99.90;;;;;;7351164;32;20115;-65
2022/07/22 19:03:14;;;;;;;11.93;9.60;;;19.70;99.90;;;;;;7357245;32;20220;-66
2022/07/22 19:07:16;;;;;;;12.93;9.75;;;19.60;99.90;;;;;;7357209;32;20113;-66
2022/07/22 19:11:18;;;;;;;13.68;9.85;;;19.50;99.90;;;;;;7356526;32;20238;-66
2022/07/22 19:15:20;;;;;;;12.63;9.38;;;19.40;99.90;;;;;;7356260;32;20660;-66
2022/07/22 19:19:22;;;;;;;17.08;14.65;;;19.20;99.90;;;;;;7354811;32;20115;-65
2022/07/22 19:23:24;;;;;;;12.32;10.23;;;19.20;99.90;;;;;;7357198;32;20779;-65
2022/07/22 19:27:26;;;;;;;16.50;9.45;;;19.10;99.90;;;;;;7357285;32;20106;-66
2022/07/22 19:31:27;;;;;;;17.50;14.23;;;18.90;99.90;;;;;;7355434;32;20096;-66
2022/07/22 19:35:29;;;;;;;20.58;15.30;;;18.80;99.90;;;;;;7357554;32;20484;-66
2022/07/22 19:39:31;;;;;;;21.23;16.73;;;18.70;99.90;;;;;;7356669;32;20121;-66
2022/07/22 19:43:33;;;;;;;14.45;11.23;;;18.60;99.90;;;;;;7356364;32;20171;-65
2022/07/22 19:47:35;;;;;;;10.93;9.75;;;18.40;99.90;;;;;;7356672;32;20217;-61
2022/07/22 19:51:36;;;;;;;16.60;9.48;;;18.30;99.90;;;;;;7355728;32;20103;-63
2022/07/22 19:55:38;;;;;;;12.57;9.15;;;18.20;99.90;;;;;;7341695;32;20112;-62
2022/07/22 19:59:41;;;;;;;11.27;8.65;;;18.20;99.90;;;;;;7330469;32;20103;-62
2022/07/22 20:03:42;;;;;;;12.55;9.55;;;18.10;99.90;;;;;;7331150;32;20461;-62
2022/07/22 20:07:44;;;;;;;16.23;9.90;;;18.10;99.90;;;;;;7330980;32;20537;-63
2022/07/22 20:11:46;;;;;;;17.52;9.05;;;17.90;99.90;;;;;;7331635;32;20199;-63
2022/07/22 20:15:48;;;;;;;15.23;9.27;;;17.90;99.90;;;;;;7331331;32;20175;-64
2022/07/22 20:19:50;;;;;;;15.00;9.98;;;17.90;99.90;;;;;;7330754;32;20091;-63
2022/07/22 20:23:52;;;;;;;10.00;8.85;;;17.80;99.90;;;;;;7331428;32;20104;-62
2022/07/22 20:27:53;;;;;;;16.15;8.23;;;17.70;99.90;;;;;;7330392;32;20135;-62
2022/07/22 20:31:55;;;;;;;13.23;8.68;;;17.70;99.90;;;;;;7331545;32;20194;-62
2022/07/22 20:35:57;;;;;;;14.32;8.73;;;17.60;99.90;;;;;;7331403;32;20166;-62
2022/07/22 20:39:59;;;;;;;10.32;8.43;;;17.50;99.90;;;;;;7330665;32;20100;-64
2022/07/22 20:44:00;;;;;;;10.43;7.72;;;17.50;99.90;;;;;;7330738;32;20149;-62
2022/07/22 20:48:02;;;;;;;14.68;7.87;;;17.40;99.90;;;;;;7329973;32;20111;-63